Cfl Racer — PJMV — position and weather

sailwx.info

Track history (hours):
 
Tides and Currents Weather Stations Pressure Air Temp Water Temp Dewpoint Dewpoint Depression Visibility Wind Speed Wind Dir Waves Ship Positions

Cfl Racer

Last reported at 2015-Jul-07 11:14 UTC. Time now 2015-Jul-07 13:16 UTC.
Position N 52°28' E 002°07'.

Length 83 m; draft 3 m.

Type: Cargo ship. MMSI: 306762000.

Date/timePositionNaut miles runAvg speedWind from/ knotsBaromVisibWave heightAir tempDewpointWater temp
2015-Jul-07 11:14N 52°28' E 002°07'812.6
2015-Jul-07 10:33N 52°34' E 001°58'1313.2
2015-Jul-07 09:33N 52°45' E 001°46'1212.2
2015-Jul-07 08:33N 52°55' E 001°35'1110.7
2015-Jul-07 07:33N 53°04' E 001°24'46 9.2
2015-Jul-07 02:33N 53°40' E 000°37'8 8.5
2015-Jul-07 01:33N 53°46' E 000°27'9 8.8
2015-Jul-07 00:33N 53°53' E 000°18'9 9.4
2015-Jul-06 23:33N 54°01' E 000°08'10 9.8
2015-Jul-06 22:34N 54°08' W 000°02'1110.7
2015-Jul-06 21:33N 54°17' W 000°13'1111.4
2015-Jul-06 20:34N 54°26' W 000°26'1212.1
2015-Jul-06 19:33N 54°34' W 000°41'1211.9
2015-Jul-06 18:33N 54°41' W 000°58'1211.6
2015-Jul-06 17:33N 54°48' W 001°14'4 4.0
2015-Jul-06 16:33N 54°50' W 001°20'0 0.0
2015-Jul-06 15:33N 54°50' W 001°20'0 0.0
2015-Jul-06 14:33N 54°50' W 001°20'0 0.0
2015-Jul-06 13:33N 54°50' W 001°20'0 0.0
2015-Jul-06 12:18N 54°50' W 001°20'0 0.0
2015-Jul-06 11:21N 54°50' W 001°20'0 0.0
2015-Jul-06 10:24N 54°50' W 001°20'0 0.0
2015-Jul-06 09:27N 54°50' W 001°20'0 0.0
2015-Jul-06 08:24N 54°50' W 001°20'0 0.0
2015-Jul-06 07:27N 54°50' W 001°20'0 0.0
2015-Jul-06 06:27N 54°50' W 001°20'0 0.0
2015-Jul-05 16:27N 54°50' W 001°20'0 0.0
2015-Jul-05 15:24N 54°50' W 001°20'0 0.0
2015-Jul-05 14:27N 54°50' W 001°20'0 0.0
2015-Jul-05 13:30N 54°50' W 001°20'0 0.0
2015-Jul-05 12:27N 54°50' W 001°20'0 0.0
2015-Jul-05 11:33N 54°50' W 001°20'0 0.0
2015-Jul-05 10:27N 54°50' W 001°20'0 0.0
2015-Jul-05 09:15N 54°50' W 001°20'0 0.0
2015-Jul-05 08:33N 54°50' W 001°20'0 0.0
2015-Jul-05 07:15N 54°50' W 001°20'0 0.0
2015-Jul-05 06:33N 54°50' W 001°20'1 0.2
2015-Jul-05 03:34N 54°50' W 001°18'8 7.8
2015-Jul-05 02:30N 54°45' W 001°07'1010.5
2015-Jul-05 01:33N 54°39' W 000°53'1411.2
2015-Jul-05 00:21N 54°31' W 000°34'911.4
2015-Jul-04 23:33N 54°25' W 000°24'1211.7
2015-Jul-04 22:33N 54°15' W 000°11'1111.4
2015-Jul-04 21:33N 54°07' E 000°01'1010.2
2015-Jul-04 20:33N 53°58' E 000°12'9 9.0
2015-Jul-04 19:33N 53°52' E 000°21'55 9.2
2015-Jul-04 13:33N 53°08' E 001°18'1110.9
2015-Jul-04 12:33N 52°60' E 001°31'1010.0
2015-Jul-04 11:33N 52°51' E 001°39'9 8.6
2015-Jul-04 10:33N 52°44' E 001°47'7 7.2
2015-Jul-04 09:33N 52°38' E 001°53'10 7.5
2015-Jul-04 08:13N 52°30' E 002°03'6 8.9
2015-Jul-04 07:33N 52°26' E 002°10'3310.3
2015-Jul-04 04:19N 52°01' E 002°46'810.4
2015-Jul-04 03:33N 51°56' E 002°56'1510.0
2015-Jul-04 02:05N 51°46' E 003°14'6 8.7
2015-Jul-04 01:21N 51°41' E 003°19'7 9.3
2015-Jul-04 00:33N 51°34' E 003°24'8 8.3
2015-Jul-03 23:33N 51°27' E 003°32'8 7.8
2015-Jul-03 22:33N 51°23' E 003°43'5 5.1
2015-Jul-03 21:31N 51°20' E 003°49'5 5.7
2015-Jul-03 20:33N 51°14' E 003°49'4 3.5
2015-Jul-03 19:33N 51°11' E 003°48'0 0.0
2015-Jul-03 18:33N 51°11' E 003°48'0 0.0
2015-Jul-03 17:33N 51°11' E 003°48'0 0.0
2015-Jul-03 16:30N 51°11' E 003°48'0 0.0
2015-Jul-03 15:33N 51°11' E 003°48'0 0.0
2015-Jul-03 14:33N 51°11' E 003°48'0 0.0
2015-Jul-03 13:33N 51°11' E 003°48'0 0.0
2015-Jul-03 12:33N 51°11' E 003°48'0 0.0
2015-Jul-03 11:33N 51°11' E 003°48'0 0.0
2015-Jul-03 10:33N 51°11' E 003°48'0 0.0
2015-Jul-03 09:30N 51°11' E 003°48'0 0.0
2015-Jul-03 08:33N 51°11' E 003°48'0 0.0
2015-Jul-03 07:33N 51°11' E 003°48'0 0.1
2015-Jul-03 06:33N 51°11' E 003°48'0 0.0
2015-Jul-03 05:30N 51°11' E 003°48'0 0.0
2015-Jul-03 04:33N 51°11' E 003°48'0 0.0
2015-Jul-03 03:33N 51°11' E 003°48'0 0.0
2015-Jul-03 02:33N 51°11' E 003°48'0 0.0
2015-Jul-03 01:33N 51°11' E 003°48'0 0.0
2015-Jul-03 00:33N 51°11' E 003°48'0 0.0
2015-Jul-02 23:33N 51°11' E 003°48'0 0.0
2015-Jul-02 22:27N 51°11' E 003°48'0 0.0
2015-Jul-02 21:30N 51°11' E 003°48'0 0.0
2015-Jul-02 20:33N 51°11' E 003°48'8 7.6
2015-Jul-02 19:33N 51°18' E 003°50'2 2.3
2015-Jul-02 18:33N 51°20' E 003°49'6 6.3
2015-Jul-02 17:33N 51°24' E 003°41'8 8.1
2015-Jul-02 16:33N 51°29' E 003°30'9 9.5
2015-Jul-02 15:33N 51°37' E 003°22'1110.7
2015-Jul-02 14:34N 51°45' E 003°12'8 7.5
2015-Jul-02 13:33N 51°51' E 003°04'7 6.9
2015-Jul-02 12:32N 51°55' E 002°55'1111.5
2015-Jul-02 11:33N 52°04' E 002°42'1511.8
2015-Jul-02 10:15N 52°14' E 002°25'2112.4
2015-Jul-02 08:34N 52°30' E 002°02'1413.8
2015-Jul-02 07:34N 52°41' E 001°49'1414.1
2015-Jul-02 06:33N 52°54' E 001°37'1313.2
2015-Jul-02 05:33N 53°04' E 001°24'1212.4
2015-Jul-02 04:33N 53°14' E 001°10'4113.4
2015-Jul-02 01:32N 53°46' E 000°28'7 7.0
2015-Jul-02 00:29N 53°52' E 000°21'9 9.6
2015-Jul-01 23:33N 53°59' E 000°11'9 9.4
2015-Jul-01 22:33N 54°06' E 000°02'9 8.8
2015-Jul-01 21:33N 54°13' W 000°08'9 9.1
2015-Jul-01 20:33N 54°20' W 000°18'9 9.3
2015-Jul-01 19:33N 54°27' W 000°27'10 9.5
2015-Jul-01 18:32N 54°35' W 000°38'1010.2
2015-Jul-01 17:33N 54°42' W 000°49'1010.3
2015-Jul-01 16:33N 54°50' W 001°02'1010.3
2015-Jul-01 15:33N 54°57' W 001°14'1110.7
2015-Jul-01 14:33N 55°05' W 001°26'4 3.8
2015-Jul-01 13:33N 55°08' W 001°31'0 0.0
2015-Jul-01 12:33N 55°08' W 001°31'7 0.3
2015-Jun-30 14:16N 55°03' W 001°22'810.6
2015-Jun-30 13:33N 54°57' W 001°13'1110.9
2015-Jun-30 12:32N 54°49' W 001°01'1111.2
2015-Jun-30 11:33N 54°41' W 000°48'1212.0
2015-Jun-30 10:33N 54°32' W 000°33'1312.7
2015-Jun-30 09:34N 54°22' W 000°20'1312.9
2015-Jun-30 08:33N 54°12' W 000°06'1313.1
2015-Jun-30 07:34N 54°02' E 000°07'1212.3
2015-Jun-30 06:33N 53°52' E 000°20'1211.5
2015-Jun-30 05:33N 53°43' E 000°33'3610.5
2015-Jun-30 02:08N 53°14' E 001°09'711.9
2015-Jun-30 01:33N 53°09' E 001°17'1312.9
2015-Jun-30 00:33N 52°60' E 001°31'1413.7
2015-Jun-29 23:33N 52°50' E 001°48'5711.5
2015-Jun-29 18:33N 52°19' E 003°06'1111.2
2015-Jun-29 17:33N 52°13' E 003°22'1111.3
2015-Jun-29 16:33N 52°07' E 003°37'1111.0
2015-Jun-29 15:33N 52°03' E 003°54'8 7.8
2015-Jun-29 14:33N 51°58' E 004°04'1 0.5
2015-Jun-29 13:33N 51°58' E 004°03'0 0.0
2015-Jun-29 12:33N 51°58' E 004°03'0 0.0
2015-Jun-29 11:33N 51°58' E 004°03'0 0.0
2015-Jun-29 10:30N 51°58' E 004°03'0 0.0
2015-Jun-29 09:33N 51°58' E 004°03'0 0.0
2015-Jun-29 08:33N 51°58' E 004°03'0 0.0
2015-Jun-29 07:33N 51°58' E 004°03'0 0.0
2015-Jun-29 06:33N 51°58' E 004°03'0 0.0
2015-Jun-29 05:33N 51°58' E 004°03'0 0.0
2015-Jun-29 04:33N 51°58' E 004°03'0 0.0
2015-Jun-29 03:33N 51°58' E 004°03'0 0.0
2015-Jun-29 02:33N 51°58' E 004°03'0 0.0
2015-Jun-29 01:33N 51°58' E 004°03'0 0.0
2015-Jun-29 00:33N 51°58' E 004°03'0 0.0
2015-Jun-28 23:33N 51°58' E 004°03'0 0.0
2015-Jun-28 22:33N 51°58' E 004°03'0 0.0
2015-Jun-28 21:33N 51°58' E 004°03'0 0.0
2015-Jun-28 20:33N 51°58' E 004°03'0 0.0
2015-Jun-28 19:33N 51°58' E 004°03'0 0.0
2015-Jun-28 18:30N 51°58' E 004°03'0 0.0
2015-Jun-28 17:33N 51°58' E 004°03'0 0.0
2015-Jun-28 16:33N 51°58' E 004°03'0 0.0
2015-Jun-28 15:33N 51°58' E 004°03'0 0.0
2015-Jun-28 14:33N 51°58' E 004°03'0 0.0
2015-Jun-28 13:33N 51°58' E 004°03'0 0.0
2015-Jun-28 12:33N 51°58' E 004°03'0 0.0
2015-Jun-28 11:30N 51°58' E 004°03'0 0.0
2015-Jun-28 10:33N 51°58' E 004°03'0 0.0
2015-Jun-28 09:33N 51°58' E 004°03'0 0.0
2015-Jun-28 08:33N 51°58' E 004°03'0 0.0
2015-Jun-28 07:33N 51°58' E 004°03'0 0.0
2015-Jun-28 06:33N 51°58' E 004°03'0 0.0
2015-Jun-28 05:33N 51°58' E 004°03'0 0.0
2015-Jun-28 04:33N 51°58' E 004°03'0 0.0
2015-Jun-28 03:33N 51°58' E 004°03'0 0.0
2015-Jun-28 02:33N 51°58' E 004°03'0 0.0
2015-Jun-28 01:33N 51°58' E 004°03'0 0.0
2015-Jun-28 00:33N 51°58' E 004°03'0 0.1
2015-Jun-27 23:33N 51°58' E 004°03'0 0.1
2015-Jun-27 22:33N 51°58' E 004°03'0 0.0
2015-Jun-27 21:33N 51°58' E 004°03'0 0.0
2015-Jun-27 20:33N 51°58' E 004°03'0 0.0
2015-Jun-27 19:33N 51°58' E 004°03'0 0.0
2015-Jun-27 18:33N 51°58' E 004°03'0 0.0
2015-Jun-27 17:33N 51°58' E 004°03'0 0.0
2015-Jun-27 16:33N 51°58' E 004°03'0 0.0
2015-Jun-27 15:33N 51°58' E 004°03'0 0.0
2015-Jun-27 14:33N 51°58' E 004°03'0 0.0
2015-Jun-27 13:33N 51°58' E 004°03'0 0.0
2015-Jun-27 12:33N 51°58' E 004°03'0 0.0
2015-Jun-27 11:33N 51°58' E 004°03'  
Track history (hours):
 
Tides and Currents Weather Stations Pressure Air Temp Water Temp Dewpoint Dewpoint Depression Visibility Wind Speed Wind Dir Waves Ship Positions

Cfl Racer

Last reported at 2015-Jul-07 11:14 UTC. Time now 2015-Jul-07 13:16 UTC.
Position N 52°28' E 002°07'.

Length 83 m; draft 3 m.

Type: Cargo ship. MMSI: 306762000.

Date/timePositionNaut miles runAvg speedWind from/ knotsBaromVisibWave heightAir tempDewpointWater temp
2015-Jul-07 11:14N 52°28' E 002°07'812.6
2015-Jul-07 10:33N 52°34' E 001°58'1313.2
2015-Jul-07 09:33N 52°45' E 001°46'1212.2
2015-Jul-07 08:33N 52°55' E 001°35'1110.7
2015-Jul-07 07:33N 53°04' E 001°24'46 9.2
2015-Jul-07 02:33N 53°40' E 000°37'8 8.5
2015-Jul-07 01:33N 53°46' E 000°27'9 8.8
2015-Jul-07 00:33N 53°53' E 000°18'9 9.4
2015-Jul-06 23:33N 54°01' E 000°08'10 9.8
2015-Jul-06 22:34N 54°08' W 000°02'1110.7
2015-Jul-06 21:33N 54°17' W 000°13'1111.4
2015-Jul-06 20:34N 54°26' W 000°26'1212.1
2015-Jul-06 19:33N 54°34' W 000°41'1211.9
2015-Jul-06 18:33N 54°41' W 000°58'1211.6
2015-Jul-06 17:33N 54°48' W 001°14'4 4.0
2015-Jul-06 16:33N 54°50' W 001°20'0 0.0
2015-Jul-06 15:33N 54°50' W 001°20'0 0.0
2015-Jul-06 14:33N 54°50' W 001°20'0 0.0
2015-Jul-06 13:33N 54°50' W 001°20'0 0.0
2015-Jul-06 12:18N 54°50' W 001°20'0 0.0
2015-Jul-06 11:21N 54°50' W 001°20'0 0.0
2015-Jul-06 10:24N 54°50' W 001°20'0 0.0
2015-Jul-06 09:27N 54°50' W 001°20'0 0.0
2015-Jul-06 08:24N 54°50' W 001°20'0 0.0
2015-Jul-06 07:27N 54°50' W 001°20'0 0.0
2015-Jul-06 06:27N 54°50' W 001°20'0 0.0
2015-Jul-05 16:27N 54°50' W 001°20'0 0.0
2015-Jul-05 15:24N 54°50' W 001°20'0 0.0
2015-Jul-05 14:27N 54°50' W 001°20'0 0.0
2015-Jul-05 13:30N 54°50' W 001°20'0 0.0
2015-Jul-05 12:27N 54°50' W 001°20'0 0.0
2015-Jul-05 11:33N 54°50' W 001°20'0 0.0
2015-Jul-05 10:27N 54°50' W 001°20'0 0.0
2015-Jul-05 09:15N 54°50' W 001°20'0 0.0
2015-Jul-05 08:33N 54°50' W 001°20'0 0.0
2015-Jul-05 07:15N 54°50' W 001°20'0 0.0
2015-Jul-05 06:33N 54°50' W 001°20'1 0.2
2015-Jul-05 03:34N 54°50' W 001°18'8 7.8
2015-Jul-05 02:30N 54°45' W 001°07'1010.5
2015-Jul-05 01:33N 54°39' W 000°53'1411.2
2015-Jul-05 00:21N 54°31' W 000°34'911.4
2015-Jul-04 23:33N 54°25' W 000°24'1211.7
2015-Jul-04 22:33N 54°15' W 000°11'1111.4
2015-Jul-04 21:33N 54°07' E 000°01'1010.2
2015-Jul-04 20:33N 53°58' E 000°12'9 9.0
2015-Jul-04 19:33N 53°52' E 000°21'55 9.2
2015-Jul-04 13:33N 53°08' E 001°18'1110.9
2015-Jul-04 12:33N 52°60' E 001°31'1010.0
2015-Jul-04 11:33N 52°51' E 001°39'9 8.6
2015-Jul-04 10:33N 52°44' E 001°47'7 7.2
2015-Jul-04 09:33N 52°38' E 001°53'10 7.5
2015-Jul-04 08:13N 52°30' E 002°03'6 8.9
2015-Jul-04 07:33N 52°26' E 002°10'3310.3
2015-Jul-04 04:19N 52°01' E 002°46'810.4
2015-Jul-04 03:33N 51°56' E 002°56'1510.0
2015-Jul-04 02:05N 51°46' E 003°14'6 8.7
2015-Jul-04 01:21N 51°41' E 003°19'7 9.3
2015-Jul-04 00:33N 51°34' E 003°24'8 8.3
2015-Jul-03 23:33N 51°27' E 003°32'8 7.8
2015-Jul-03 22:33N 51°23' E 003°43'5 5.1
2015-Jul-03 21:31N 51°20' E 003°49'5 5.7
2015-Jul-03 20:33N 51°14' E 003°49'4 3.5
2015-Jul-03 19:33N 51°11' E 003°48'0 0.0
2015-Jul-03 18:33N 51°11' E 003°48'0 0.0
2015-Jul-03 17:33N 51°11' E 003°48'0 0.0
2015-Jul-03 16:30N 51°11' E 003°48'0 0.0
2015-Jul-03 15:33N 51°11' E 003°48'0 0.0
2015-Jul-03 14:33N 51°11' E 003°48'0 0.0
2015-Jul-03 13:33N 51°11' E 003°48'0 0.0
2015-Jul-03 12:33N 51°11' E 003°48'0 0.0
2015-Jul-03 11:33N 51°11' E 003°48'0 0.0
2015-Jul-03 10:33N 51°11' E 003°48'0 0.0
2015-Jul-03 09:30N 51°11' E 003°48'0 0.0
2015-Jul-03 08:33N 51°11' E 003°48'0 0.0
2015-Jul-03 07:33N 51°11' E 003°48'0 0.1
2015-Jul-03 06:33N 51°11' E 003°48'0 0.0
2015-Jul-03 05:30N 51°11' E 003°48'0 0.0
2015-Jul-03 04:33N 51°11' E 003°48'0 0.0
2015-Jul-03 03:33N 51°11' E 003°48'0 0.0
2015-Jul-03 02:33N 51°11' E 003°48'0 0.0
2015-Jul-03 01:33N 51°11' E 003°48'0 0.0
2015-Jul-03 00:33N 51°11' E 003°48'0 0.0
2015-Jul-02 23:33N 51°11' E 003°48'0 0.0
2015-Jul-02 22:27N 51°11' E 003°48'0 0.0
2015-Jul-02 21:30N 51°11' E 003°48'0 0.0
2015-Jul-02 20:33N 51°11' E 003°48'8 7.6
2015-Jul-02 19:33N 51°18' E 003°50'2 2.3
2015-Jul-02 18:33N 51°20' E 003°49'6 6.3
2015-Jul-02 17:33N 51°24' E 003°41'8 8.1
2015-Jul-02 16:33N 51°29' E 003°30'9 9.5
2015-Jul-02 15:33N 51°37' E 003°22'1110.7
2015-Jul-02 14:34N 51°45' E 003°12'8 7.5
2015-Jul-02 13:33N 51°51' E 003°04'7 6.9
2015-Jul-02 12:32N 51°55' E 002°55'1111.5
2015-Jul-02 11:33N 52°04' E 002°42'1511.8
2015-Jul-02 10:15N 52°14' E 002°25'2112.4
2015-Jul-02 08:34N 52°30' E 002°02'1413.8
2015-Jul-02 07:34N 52°41' E 001°49'1414.1
2015-Jul-02 06:33N 52°54' E 001°37'1313.2
2015-Jul-02 05:33N 53°04' E 001°24'1212.4
2015-Jul-02 04:33N 53°14' E 001°10'4113.4
2015-Jul-02 01:32N 53°46' E 000°28'7 7.0
2015-Jul-02 00:29N 53°52' E 000°21'9 9.6
2015-Jul-01 23:33N 53°59' E 000°11'9 9.4
2015-Jul-01 22:33N 54°06' E 000°02'9 8.8
2015-Jul-01 21:33N 54°13' W 000°08'9 9.1
2015-Jul-01 20:33N 54°20' W 000°18'9 9.3
2015-Jul-01 19:33N 54°27' W 000°27'10 9.5
2015-Jul-01 18:32N 54°35' W 000°38'1010.2
2015-Jul-01 17:33N 54°42' W 000°49'1010.3
2015-Jul-01 16:33N 54°50' W 001°02'1010.3
2015-Jul-01 15:33N 54°57' W 001°14'1110.7
2015-Jul-01 14:33N 55°05' W 001°26'4 3.8
2015-Jul-01 13:33N 55°08' W 001°31'0 0.0
2015-Jul-01 12:33N 55°08' W 001°31'7 0.3
2015-Jun-30 14:16N 55°03' W 001°22'810.6
2015-Jun-30 13:33N 54°57' W 001°13'1110.9
2015-Jun-30 12:32N 54°49' W 001°01'1111.2
2015-Jun-30 11:33N 54°41' W 000°48'1212.0
2015-Jun-30 10:33N 54°32' W 000°33'1312.7
2015-Jun-30 09:34N 54°22' W 000°20'1312.9
2015-Jun-30 08:33N 54°12' W 000°06'1313.1
2015-Jun-30 07:34N 54°02' E 000°07'1212.3
2015-Jun-30 06:33N 53°52' E 000°20'1211.5
2015-Jun-30 05:33N 53°43' E 000°33'3610.5
2015-Jun-30 02:08N 53°14' E 001°09'711.9
2015-Jun-30 01:33N 53°09' E 001°17'1312.9
2015-Jun-30 00:33N 52°60' E 001°31'1413.7
2015-Jun-29 23:33N 52°50' E 001°48'5711.5
2015-Jun-29 18:33N 52°19' E 003°06'1111.2
2015-Jun-29 17:33N 52°13' E 003°22'1111.3
2015-Jun-29 16:33N 52°07' E 003°37'1111.0
2015-Jun-29 15:33N 52°03' E 003°54'8 7.8
2015-Jun-29 14:33N 51°58' E 004°04'1 0.5
2015-Jun-29 13:33N 51°58' E 004°03'0 0.0
2015-Jun-29 12:33N 51°58' E 004°03'0 0.0
2015-Jun-29 11:33N 51°58' E 004°03'0 0.0
2015-Jun-29 10:30N 51°58' E 004°03'0 0.0
2015-Jun-29 09:33N 51°58' E 004°03'0 0.0
2015-Jun-29 08:33N 51°58' E 004°03'0 0.0
2015-Jun-29 07:33N 51°58' E 004°03'0 0.0
2015-Jun-29 06:33N 51°58' E 004°03'0 0.0
2015-Jun-29 05:33N 51°58' E 004°03'0 0.0
2015-Jun-29 04:33N 51°58' E 004°03'0 0.0
2015-Jun-29 03:33N 51°58' E 004°03'0 0.0
2015-Jun-29 02:33N 51°58' E 004°03'0 0.0
2015-Jun-29 01:33N 51°58' E 004°03'0 0.0
2015-Jun-29 00:33N 51°58' E 004°03'0 0.0
2015-Jun-28 23:33N 51°58' E 004°03'0 0.0
2015-Jun-28 22:33N 51°58' E 004°03'0 0.0
2015-Jun-28 21:33N 51°58' E 004°03'0 0.0
2015-Jun-28 20:33N 51°58' E 004°03'0 0.0
2015-Jun-28 19:33N 51°58' E 004°03'0 0.0
2015-Jun-28 18:30N 51°58' E 004°03'0 0.0
2015-Jun-28 17:33N 51°58' E 004°03'0 0.0
2015-Jun-28 16:33N 51°58' E 004°03'0 0.0
2015-Jun-28 15:33N 51°58' E 004°03'0 0.0
2015-Jun-28 14:33N 51°58' E 004°03'0 0.0
2015-Jun-28 13:33N 51°58' E 004°03'0 0.0
2015-Jun-28 12:33N 51°58' E 004°03'0 0.0
2015-Jun-28 11:30N 51°58' E 004°03'0 0.0
2015-Jun-28 10:33N 51°58' E 004°03'0 0.0
2015-Jun-28 09:33N 51°58' E 004°03'0 0.0
2015-Jun-28 08:33N 51°58' E 004°03'0 0.0
2015-Jun-28 07:33N 51°58' E 004°03'0 0.0
2015-Jun-28 06:33N 51°58' E 004°03'0 0.0
2015-Jun-28 05:33N 51°58' E 004°03'0 0.0
2015-Jun-28 04:33N 51°58' E 004°03'0 0.0
2015-Jun-28 03:33N 51°58' E 004°03'0 0.0
2015-Jun-28 02:33N 51°58' E 004°03'0 0.0
2015-Jun-28 01:33N 51°58' E 004°03'0 0.0
2015-Jun-28 00:33N 51°58' E 004°03'0 0.1
2015-Jun-27 23:33N 51°58' E 004°03'0 0.1
2015-Jun-27 22:33N 51°58' E 004°03'0 0.0
2015-Jun-27 21:33N 51°58' E 004°03'0 0.0
2015-Jun-27 20:33N 51°58' E 004°03'0 0.0
2015-Jun-27 19:33N 51°58' E 004°03'0 0.0
2015-Jun-27 18:33N 51°58' E 004°03'0 0.0
2015-Jun-27 17:33N 51°58' E 004°03'0 0.0
2015-Jun-27 16:33N 51°58' E 004°03'0 0.0
2015-Jun-27 15:33N 51°58' E 004°03'0 0.0
2015-Jun-27 14:33N 51°58' E 004°03'0 0.0
2015-Jun-27 13:33N 51°58' E 004°03'0 0.0
2015-Jun-27 12:33N 51°58' E 004°03'0 0.0
2015-Jun-27 11:33N 51°58' E 004°03'  

Dump ship's entire track history